Time;durP1;ratioP1;P1;durP2;ratioP2;P2;SDS_P1;SDS_P2;PMS_P1;PMS_P2;Temp;Humidity;BMP_temperature;BMP_pressure;BME280_temperature;BME280_humidity;BME280_pressure;Samples;Min_cycle;Max_cycle;Signal;HPM_P1;HPM_P2
2021/03/06 00:00:54;;;;;;;9.73;4.90;;;-0.10;1.00;;;;;;4900232;29;20060;-77
2021/03/06 00:03:23;;;;;;;10.55;5.05;;;-0.10;1.00;;;;;;4903660;29;20055;-78
2021/03/06 00:05:50;;;;;;;9.38;5.18;;;-0.10;1.00;;;;;;4910496;29;20486;-76
2021/03/06 00:08:23;;;;;;;9.88;4.97;;;-0.10;1.00;;;;;;4898257;29;20058;-78
2021/03/06 00:10:50;;;;;;;7.75;4.55;;;-0.20;1.00;;;;;;4898863;29;20125;-77
2021/03/06 00:13:18;;;;;;;9.38;4.68;;;-0.10;1.00;;;;;;4907233;29;20056;-78
2021/03/06 00:15:46;;;;;;;9.18;5.05;;;-0.10;1.00;;;;;;4901092;29;20479;-76
2021/03/06 00:18:13;;;;;;;7.45;4.63;;;-0.10;1.00;;;;;;4894430;29;20059;-78
2021/03/06 00:20:40;;;;;;;7.32;4.25;;;-0.10;1.00;;;;;;4899823;29;20063;-77
2021/03/06 00:23:08;;;;;;;6.82;4.63;;;-0.10;1.00;;;;;;4898429;29;20519;-82
2021/03/06 00:25:36;;;;;;;6.88;4.43;;;0.00;1.00;;;;;;4908646;29;20090;-78
2021/03/06 00:28:03;;;;;;;7.18;4.10;;;-0.10;1.00;;;;;;4901390;29;20048;-77
2021/03/06 00:30:31;;;;;;;7.18;4.57;;;0.00;1.00;;;;;;4903856;29;20057;-77
2021/03/06 00:32:59;;;;;;;7.47;4.78;;;-0.10;1.00;;;;;;4903967;29;20054;-78
2021/03/06 00:35:26;;;;;;;8.50;4.50;;;-0.10;1.00;;;;;;4903187;29;20064;-78
2021/03/06 00:37:53;;;;;;;7.93;4.47;;;-0.10;1.00;;;;;;4900318;29;20048;-78
2021/03/06 00:40:20;;;;;;;8.88;4.70;;;-0.10;1.00;;;;;;4902093;29;20139;-75
2021/03/06 00:42:48;;;;;;;6.72;4.13;;;-0.20;1.00;;;;;;4897706;29;20053;-76
2021/03/06 00:45:16;;;;;;;7.38;4.28;;;-0.20;1.00;;;;;;4903981;29;20071;-76
2021/03/06 00:47:42;;;;;;;8.05;4.57;;;-0.20;1.00;;;;;;4896377;29;20060;-77
2021/03/06 00:50:13;;;;;;;5.53;4.20;;;-0.20;1.00;;;;;;4893778;29;20057;-77
2021/03/06 00:52:41;;;;;;;5.47;3.75;;;-0.30;1.00;;;;;;4901504;29;20159;-77
2021/03/06 00:55:09;;;;;;;7.53;4.82;;;-0.30;1.00;;;;;;4903422;29;20478;-76
2021/03/06 00:57:36;;;;;;;8.77;4.60;;;-0.40;1.00;;;;;;4894936;29;20661;-77
2021/03/06 01:00:06;;;;;;;7.75;4.63;;;-0.50;1.00;;;;;;4903407;29;20525;-75
2021/03/06 01:02:33;;;;;;;8.10;4.57;;;-0.50;1.00;;;;;;4903640;29;20066;-76
2021/03/06 01:05:00;;;;;;;9.68;4.57;;;-0.40;1.00;;;;;;4895919;29;21945;-77
2021/03/06 01:07:28;;;;;;;8.25;4.32;;;-0.40;1.00;;;;;;4902087;29;20054;-76
2021/03/06 01:09:57;;;;;;;6.85;4.75;;;-0.50;1.00;;;;;;4902652;29;20076;-77
2021/03/06 01:12:24;;;;;;;8.48;4.90;;;-0.50;1.00;;;;;;4907463;29;20044;-77
2021/03/06 01:14:51;;;;;;;7.22;4.72;;;-0.50;1.00;;;;;;4909259;29;20066;-78
2021/03/06 01:17:20;;;;;;;7.32;5.00;;;-0.60;1.00;;;;;;4903402;29;20064;-77
2021/03/06 01:19:47;;;;;;;8.43;5.30;;;-0.60;1.00;;;;;;4905166;29;20052;-76
2021/03/06 01:22:15;;;;;;;9.80;6.60;;;-0.80;1.00;;;;;;4908535;29;20054;-77
2021/03/06 01:24:42;;;;;;;10.40;6.50;;;-0.90;1.00;;;;;;4907861;29;20058;-76
2021/03/06 01:27:09;;;;;;;10.30;5.95;;;-1.00;1.00;;;;;;4903134;29;20049;-77
2021/03/06 01:29:36;;;;;;;9.15;6.18;;;-1.10;1.00;;;;;;4907292;29;20176;-76
2021/03/06 01:32:05;;;;;;;10.60;7.03;;;-1.20;1.00;;;;;;4907719;29;20048;-77
2021/03/06 01:34:34;;;;;;;10.35;5.97;;;-1.20;1.20;;;;;;4906118;29;20091;-76
2021/03/06 01:37:01;;;;;;;8.80;6.13;;;-1.30;1.30;;;;;;4902802;29;20056;-77
2021/03/06 01:39:28;;;;;;;10.63;6.38;;;-1.30;1.60;;;;;;4904842;29;20135;-77
2021/03/06 01:41:57;;;;;;;9.45;6.80;;;-1.30;1.40;;;;;;4907797;29;20565;-76
2021/03/06 01:44:24;;;;;;;7.95;6.00;;;-1.30;1.70;;;;;;4908239;29;20054;-75
2021/03/06 01:46:51;;;;;;;9.65;6.22;;;-1.20;1.00;;;;;;4904282;29;20066;-78
2021/03/06 01:49:18;;;;;;;11.63;6.03;;;-1.20;1.00;;;;;;4904087;29;20044;-76
2021/03/06 01:51:47;;;;;;;7.88;5.32;;;-1.10;1.00;;;;;;4906409;29;20095;-78
2021/03/06 01:54:16;;;;;;;8.63;5.80;;;-1.10;1.00;;;;;;4905991;29;20047;-78
2021/03/06 01:56:43;;;;;;;7.65;5.50;;;-1.00;1.00;;;;;;4900878;29;20156;-76
2021/03/06 01:59:10;;;;;;;8.82;5.47;;;-1.00;1.00;;;;;;4903902;29;20066;-78
2021/03/06 02:01:37;;;;;;;8.90;5.63;;;-1.20;1.00;;;;;;4903122;29;20522;-77
2021/03/06 02:04:05;;;;;;;10.30;5.95;;;-1.20;1.00;;;;;;4911006;29;20494;-77
2021/03/06 02:06:32;;;;;;;8.88;6.30;;;-1.30;1.00;;;;;;4904085;29;20147;-76
2021/03/06 02:09:00;;;;;;;9.63;6.65;;;-1.40;1.30;;;;;;4906350;29;20148;-76
2021/03/06 02:11:41;;;;;;;9.70;6.45;;;-1.50;1.50;;;;;;4899901;29;20116;-77
2021/03/06 02:14:19;;;;;;;8.82;6.40;;;-1.60;2.40;;;;;;4908334;29;20076;-77
2021/03/06 02:16:50;;;;;;;11.20;7.30;;;-1.60;2.90;;;;;;4906326;29;20438;-79
2021/03/06 02:20:10;;;;;;;9.30;6.57;;;-1.70;4.00;;;;;;4906536;29;20457;-78
2021/03/06 02:22:53;;;;;;;8.70;6.13;;;-1.70;3.50;;;;;;4902637;29;20119;-78
2021/03/06 02:26:13;;;;;;;10.43;6.28;;;-1.70;3.30;;;;;;4904140;29;20104;-78
2021/03/06 02:28:50;;;;;;;8.50;5.95;;;-1.60;2.50;;;;;;4898954;29;20396;-79
2021/03/06 02:31:21;;;;;;;11.95;6.45;;;-1.60;2.70;;;;;;4906457;29;20426;-78
2021/03/06 02:33:56;;;;;;;13.02;6.78;;;-1.70;2.30;;;;;;4906741;29;20086;-78
2021/03/06 02:36:27;;;;;;;10.18;6.43;;;-1.80;2.70;;;;;;4896610;29;20056;-78
2021/03/06 02:38:57;;;;;;;14.25;6.05;;;-1.90;3.60;;;;;;4906601;29;20518;-78
2021/03/06 02:41:26;;;;;;;9.20;6.50;;;-1.90;4.00;;;;;;4905525;29;20049;-78
2021/03/06 02:43:54;;;;;;;7.43;5.30;;;-1.90;3.50;;;;;;4910495;29;20044;-80
2021/03/06 02:46:24;;;;;;;9.02;5.63;;;-1.50;1.00;;;;;;4898739;29;20062;-77
2021/03/06 02:48:54;;;;;;;10.15;6.05;;;-1.50;1.00;;;;;;4900963;29;20080;-78
2021/03/06 02:51:22;;;;;;;9.45;5.70;;;-1.50;1.00;;;;;;4900154;29;20060;-78
2021/03/06 02:53:49;;;;;;;9.65;5.90;;;-1.60;1.00;;;;;;4904697;29;20136;-77
2021/03/06 02:56:17;;;;;;;6.90;5.32;;;-1.80;1.00;;;;;;4902333;29;20052;-77
2021/03/06 02:59:02;;;;;;;11.10;6.20;;;-1.90;1.00;;;;;;4901557;29;20076;-78
2021/03/06 03:01:42;;;;;;;9.35;6.28;;;-1.80;1.00;;;;;;4898242;29;20499;-77
2021/03/06 03:04:18;;;;;;;9.55;5.70;;;-1.80;1.00;;;;;;4908276;29;20048;-77
2021/03/06 03:06:48;;;;;;;10.57;6.07;;;-1.80;1.00;;;;;;4899048;29;20048;-78
2021/03/06 03:09:20;;;;;;;9.48;5.95;;;-1.80;1.00;;;;;;4903428;29;20060;-78
2021/03/06 03:11:53;;;;;;;9.20;5.88;;;-2.00;1.00;;;;;;4903139;29;20139;-77
2021/03/06 03:14:25;;;;;;;8.70;5.45;;;-2.00;1.50;;;;;;4902663;29;20056;-78
2021/03/06 03:16:59;;;;;;;9.77;6.47;;;-2.10;2.00;;;;;;4902199;29;20057;-79
2021/03/06 03:19:31;;;;;;;11.13;6.03;;;-2.10;2.50;;;;;;4903827;29;20052;-78
2021/03/06 03:22:00;;;;;;;8.93;6.00;;;-2.10;2.10;;;;;;4908525;29;20052;-78
2021/03/06 03:24:32;;;;;;;10.95;5.47;;;-2.20;1.90;;;;;;4902734;29;20048;-79
2021/03/06 03:26:59;;;;;;;10.00;5.30;;;-2.10;1.50;;;;;;4897567;29;20076;-77
2021/03/06 03:29:27;;;;;;;10.38;5.35;;;-2.10;1.00;;;;;;4911824;29;20119;-80
2021/03/06 03:31:55;;;;;;;9.93;5.75;;;-2.10;1.00;;;;;;4907400;29;20174;-77
2021/03/06 03:34:24;;;;;;;8.48;5.65;;;-2.20;1.00;;;;;;4900728;29;20416;-77
2021/03/06 03:36:53;;;;;;;10.27;5.82;;;-2.20;1.00;;;;;;4903808;29;20091;-78
2021/03/06 03:39:20;;;;;;;7.90;5.18;;;-2.30;1.00;;;;;;4904779;29;20064;-77
2021/03/06 03:41:47;;;;;;;8.02;5.57;;;-2.20;1.00;;;;;;4904028;29;20059;-77
2021/03/06 03:44:16;;;;;;;9.98;6.15;;;-2.30;1.00;;;;;;4907640;29;20509;-77
2021/03/06 03:46:44;;;;;;;8.70;5.72;;;-2.20;1.00;;;;;;4902040;29;20064;-77
2021/03/06 03:49:16;;;;;;;8.20;5.32;;;-2.30;1.20;;;;;;4906141;29;20066;-77
2021/03/06 03:51:43;;;;;;;8.85;5.50;;;-2.10;1.00;;;;;;4907384;29;20048;-77
2021/03/06 03:54:12;;;;;;;9.43;6.40;;;-2.20;1.00;;;;;;4902330;29;20049;-76
2021/03/06 03:56:39;;;;;;;9.73;6.15;;;-2.20;1.00;;;;;;4901320;29;20052;-76
2021/03/06 03:59:06;;;;;;;9.90;5.60;;;-2.30;1.00;;;;;;4898156;29;20055;-78
2021/03/06 04:01:43;;;;;;;9.75;5.93;;;-2.30;1.00;;;;;;4897304;29;20052;-76
2021/03/06 04:04:27;;;;;;;9.25;5.45;;;-2.10;1.00;;;;;;4903144;29;20044;-77
2021/03/06 04:06:54;;;;;;;9.18;5.15;;;-2.10;1.00;;;;;;4899497;29;20482;-79
2021/03/06 04:09:24;;;;;;;8.95;5.78;;;-2.10;1.00;;;;;;4901003;29;20492;-78
2021/03/06 04:11:51;;;;;;;9.40;6.10;;;-2.10;1.00;;;;;;4904015;29;20137;-77
2021/03/06 04:14:18;;;;;;;9.68;5.60;;;-2.20;1.00;;;;;;4904016;29;20419;-77
2021/03/06 04:16:46;;;;;;;10.02;6.00;;;-2.30;1.00;;;;;;4903569;29;20412;-78
2021/03/06 04:19:13;;;;;;;8.57;5.82;;;-2.30;1.00;;;;;;4900051;29;20107;-77
2021/03/06 04:21:40;;;;;;;7.63;5.57;;;-2.20;1.00;;;;;;4902420;29;20052;-77
2021/03/06 04:24:08;;;;;;;9.27;5.75;;;-2.40;1.00;;;;;;4902387;29;20075;-77
2021/03/06 04:26:49;;;;;;;10.60;6.15;;;-2.50;1.00;;;;;;4909704;29;20115;-77
2021/03/06 04:29:18;;;;;;;7.70;5.57;;;-2.50;1.00;;;;;;4904361;29;20415;-76
2021/03/06 04:31:45;;;;;;;8.68;5.47;;;-2.20;1.00;;;;;;4907921;29;20383;-77
2021/03/06 04:34:12;;;;;;;7.68;5.75;;;-2.30;1.00;;;;;;4903185;29;20135;-77
2021/03/06 04:36:39;;;;;;;8.80;5.95;;;-2.30;1.00;;;;;;4896826;29;20048;-77
2021/03/06 04:39:06;;;;;;;9.90;5.78;;;-2.20;1.00;;;;;;4906559;29;20487;-77
2021/03/06 04:41:33;;;;;;;10.05;5.78;;;-2.20;1.00;;;;;;4904666;29;20052;-77
2021/03/06 04:44:01;;;;;;;10.75;5.93;;;-2.30;1.00;;;;;;4905277;29;20124;-77
2021/03/06 04:46:27;;;;;;;9.25;5.82;;;-2.30;1.00;;;;;;4903978;29;20052;-77
2021/03/06 04:48:55;;;;;;;11.30;5.95;;;-2.30;1.00;;;;;;4907562;29;20067;-77
2021/03/06 04:51:22;;;;;;;9.20;5.85;;;-2.30;1.00;;;;;;4904852;29;20060;-77
2021/03/06 04:53:50;;;;;;;13.10;5.70;;;-2.40;1.00;;;;;;4902973;29;20059;-77
2021/03/06 04:56:16;;;;;;;8.30;5.47;;;-2.30;1.00;;;;;;4906314;29;20082;-78
2021/03/06 04:58:43;;;;;;;9.32;5.75;;;-2.50;1.00;;;;;;4899400;29;20522;-77
2021/03/06 05:01:10;;;;;;;7.55;5.32;;;-2.40;1.00;;;;;;4903687;29;20515;-78
2021/03/06 05:03:37;;;;;;;7.80;5.55;;;-2.40;1.00;;;;;;4913531;29;20499;-77
2021/03/06 05:06:04;;;;;;;9.40;6.68;;;-2.50;1.00;;;;;;4897271;29;21272;-78
2021/03/06 05:08:31;;;;;;;9.55;6.43;;;-2.60;1.00;;;;;;4909322;29;20075;-78
2021/03/06 05:10:59;;;;;;;9.23;5.97;;;-2.50;1.00;;;;;;4905457;29;20052;-77
2021/03/06 05:13:26;;;;;;;12.30;6.45;;;-2.30;1.00;;;;;;4906683;29;20418;-77
2021/03/06 05:15:53;;;;;;;11.80;6.15;;;-2.30;1.00;;;;;;4907264;29;20734;-78
2021/03/06 05:18:20;;;;;;;7.75;5.47;;;-2.50;1.00;;;;;;4906896;29;20120;-78
2021/03/06 05:20:47;;;;;;;9.07;6.03;;;-2.50;1.00;;;;;;4903174;29;20052;-78
2021/03/06 05:23:14;;;;;;;7.28;5.40;;;-2.60;1.00;;;;;;4911515;29;20951;-75
2021/03/06 05:25:41;;;;;;;10.98;6.47;;;-2.50;1.00;;;;;;4901012;29;20581;-75
2021/03/06 05:28:09;;;;;;;8.68;6.07;;;-2.50;1.00;;;;;;4905782;29;20059;-74
2021/03/06 05:30:36;;;;;;;9.40;6.65;;;-2.50;1.00;;;;;;4906362;29;20056;-75
2021/03/06 05:33:03;;;;;;;9.38;5.72;;;-2.60;1.00;;;;;;4908935;29;20052;-76
2021/03/06 05:35:30;;;;;;;9.27;5.68;;;-2.70;1.00;;;;;;4913893;29;20460;-75
2021/03/06 05:37:57;;;;;;;8.38;5.65;;;-2.60;1.00;;;;;;4903399;29;20059;-75
2021/03/06 05:40:30;;;;;;;10.30;6.35;;;-2.70;1.00;;;;;;4904474;29;20059;-76
2021/03/06 05:42:57;;;;;;;9.30;6.30;;;-2.80;1.00;;;;;;4905761;29;20056;-75
2021/03/06 05:45:25;;;;;;;7.97;5.70;;;-2.80;1.00;;;;;;4903402;29;20059;-76
2021/03/06 05:47:52;;;;;;;8.43;6.00;;;-2.70;1.00;;;;;;4907703;29;20056;-76
2021/03/06 05:50:19;;;;;;;11.02;6.45;;;-2.70;1.00;;;;;;4908336;29;20063;-75
2021/03/06 05:52:47;;;;;;;8.60;6.30;;;-2.70;1.00;;;;;;4906850;29;20052;-77
2021/03/06 05:55:17;;;;;;;12.27;6.90;;;-2.70;1.00;;;;;;4907047;29;20056;-76
2021/03/06 05:57:55;;;;;;;9.75;6.63;;;-2.70;1.00;;;;;;4909871;29;20087;-76
2021/03/06 06:00:22;;;;;;;8.98;6.03;;;-2.80;1.00;;;;;;4906814;29;20070;-77
2021/03/06 06:02:55;;;;;;;8.15;6.30;;;-2.70;1.00;;;;;;4902769;29;20055;-77
2021/03/06 06:05:23;;;;;;;8.52;6.03;;;-2.70;1.00;;;;;;4909131;29;20432;-78
2021/03/06 06:07:52;;;;;;;9.40;5.93;;;-2.70;1.00;;;;;;4903067;29;20503;-77
2021/03/06 06:10:19;;;;;;;10.32;6.00;;;-2.70;1.00;;;;;;4904091;29;20060;-77
2021/03/06 06:12:46;;;;;;;9.85;6.30;;;-2.70;1.00;;;;;;4908373;29;20048;-75
2021/03/06 06:15:14;;;;;;;10.52;6.63;;;-2.50;1.00;;;;;;4910205;29;20048;-74
2021/03/06 06:17:42;;;;;;;10.63;6.32;;;-2.60;1.00;;;;;;4907318;29;20060;-76
2021/03/06 06:20:10;;;;;;;9.77;6.22;;;-2.60;1.00;;;;;;4902539;29;20044;-75
2021/03/06 06:22:37;;;;;;;13.18;7.05;;;-2.60;1.00;;;;;;4905731;29;20053;-77
2021/03/06 06:25:05;;;;;;;10.90;6.82;;;-2.50;1.00;;;;;;4911308;29;20054;-76
2021/03/06 06:27:33;;;;;;;8.52;5.78;;;-2.50;1.00;;;;;;4905922;29;20057;-76
2021/03/06 06:30:03;;;;;;;10.15;6.90;;;-2.40;1.00;;;;;;4902397;29;20410;-76
2021/03/06 06:32:41;;;;;;;9.88;6.35;;;-2.30;1.00;;;;;;4899452;29;20084;-78
2021/03/06 06:35:12;;;;;;;9.90;6.20;;;-2.20;1.00;;;;;;4907678;29;20063;-78
2021/03/06 06:37:39;;;;;;;7.68;5.63;;;-2.10;1.00;;;;;;4906533;29;20059;-77
2021/03/06 06:40:17;;;;;;;9.68;5.97;;;-2.00;1.00;;;;;;4905636;29;20074;-77
2021/03/06 06:42:44;;;;;;;9.80;6.70;;;-2.00;1.00;;;;;;4909764;29;20093;-77
2021/03/06 06:45:12;;;;;;;8.55;5.65;;;-1.90;1.00;;;;;;4906729;29;20052;-77
2021/03/06 06:47:41;;;;;;;9.85;6.80;;;-1.90;1.00;;;;;;4905168;29;20060;-78
2021/03/06 06:50:12;;;;;;;11.52;7.10;;;-1.80;1.00;;;;;;4906551;29;20048;-77
2021/03/06 06:52:40;;;;;;;10.23;6.82;;;-1.70;1.00;;;;;;4904428;29;20048;-76
2021/03/06 06:55:09;;;;;;;13.50;8.18;;;-1.70;1.00;;;;;;4908064;29;20078;-77
2021/03/06 06:57:47;;;;;;;15.02;8.48;;;-1.60;1.00;;;;;;4909556;29;20603;-76
2021/03/06 07:00:16;;;;;;;11.95;7.20;;;-1.50;1.00;;;;;;4901112;29;20578;-78
2021/03/06 07:02:53;;;;;;;11.48;6.75;;;-1.50;1.00;;;;;;4905431;29;20056;-76
2021/03/06 07:05:32;;;;;;;10.90;7.20;;;-1.50;1.00;;;;;;4904481;29;20147;-77
2021/03/06 07:08:01;;;;;;;9.20;6.43;;;-1.40;1.00;;;;;;4905401;29;20056;-76
2021/03/06 07:10:34;;;;;;;12.70;7.35;;;-1.40;1.00;;;;;;4904369;29;20143;-76
2021/03/06 07:13:02;;;;;;;10.00;6.53;;;-1.30;1.00;;;;;;4907949;29;20057;-77
2021/03/06 07:15:31;;;;;;;10.43;6.43;;;-1.20;1.00;;;;;;4901323;29;20052;-77
2021/03/06 07:18:00;;;;;;;12.23;7.50;;;-1.10;1.00;;;;;;4902284;29;20418;-77
2021/03/06 07:20:36;;;;;;;11.55;7.45;;;-1.00;1.00;;;;;;4907273;29;20052;-78
2021/03/06 07:23:18;;;;;;;9.05;6.22;;;-0.90;1.00;;;;;;4909780;29;20052;-76
2021/03/06 07:25:46;;;;;;;8.52;6.07;;;-0.80;1.00;;;;;;4903791;29;20516;-77
2021/03/06 07:28:13;;;;;;;10.60;5.85;;;-0.70;1.00;;;;;;4900920;29;20048;-78
2021/03/06 07:30:40;;;;;;;8.63;5.70;;;-0.50;1.00;;;;;;4907132;29;20044;-77
2021/03/06 07:33:08;;;;;;;10.45;6.22;;;-0.40;1.00;;;;;;4901583;29;20580;-77
2021/03/06 07:35:38;;;;;;;10.13;5.88;;;-0.30;1.00;;;;;;4902466;29;20048;-77
2021/03/06 07:38:07;;;;;;;9.27;5.40;;;-0.30;1.00;;;;;;4905884;29;20063;-78
2021/03/06 07:40:36;;;;;;;8.40;6.25;;;-0.20;1.00;;;;;;4901615;29;20047;-76
2021/03/06 07:43:10;;;;;;;8.27;5.00;;;-0.10;1.00;;;;;;4906817;29;20048;-77
2021/03/06 07:45:40;;;;;;;6.07;4.90;;;0.00;1.00;;;;;;4898332;29;20058;-77
2021/03/06 07:48:12;;;;;;;6.72;4.90;;;0.10;1.00;;;;;;4905003;29;20299;-75
2021/03/06 07:50:42;;;;;;;4.88;4.22;;;0.20;1.00;;;;;;4902068;29;20063;-77
2021/03/06 07:53:10;;;;;;;9.68;5.10;;;0.30;1.00;;;;;;4906733;29;20044;-78
2021/03/06 07:55:37;;;;;;;7.72;5.05;;;0.50;1.00;;;;;;4909756;29;20052;-78
2021/03/06 07:58:06;;;;;;;6.68;4.10;;;0.60;1.00;;;;;;4899868;29;20063;-77
2021/03/06 08:00:48;;;;;;;6.60;4.93;;;0.50;1.00;;;;;;4899046;29;20048;-76
2021/03/06 08:03:37;;;;;;;5.75;4.13;;;0.60;1.00;;;;;;4901426;29;20135;-77
2021/03/06 08:06:18;;;;;;;6.68;4.60;;;0.70;1.00;;;;;;4900453;29;20144;-77
2021/03/06 08:09:15;;;;;;;7.10;4.53;;;0.80;1.00;;;;;;4896047;29;20052;-77
2021/03/06 08:11:44;;;;;;;10.68;5.22;;;0.90;1.00;;;;;;4840533;29;20488;-77
2021/03/06 08:14:35;;;;;;;6.20;4.70;;;1.00;1.00;;;;;;4894617;29;20058;-76
2021/03/06 08:17:02;;;;;;;6.32;4.60;;;1.20;1.00;;;;;;4892413;29;20064;-77
2021/03/06 08:19:31;;;;;;;5.70;4.18;;;1.20;1.00;;;;;;4908174;29;20074;-76
2021/03/06 08:22:17;;;;;;;7.75;4.78;;;1.30;1.00;;;;;;4900253;29;20044;-76
2021/03/06 08:24:45;;;;;;;6.78;4.47;;;1.20;1.00;;;;;;4912378;29;20134;-74
2021/03/06 08:27:19;;;;;;;6.45;4.53;;;1.30;1.00;;;;;;4899132;29;20052;-75
2021/03/06 08:29:48;;;;;;;7.78;4.32;;;1.30;1.00;;;;;;4908293;29;20075;-77
2021/03/06 08:32:25;;;;;;;8.32;4.47;;;1.20;1.00;;;;;;4903254;29;20504;-77
2021/03/06 08:34:53;;;;;;;8.45;4.60;;;1.30;1.00;;;;;;4904338;29;20123;-77
2021/03/06 08:37:35;;;;;;;10.30;5.38;;;1.40;1.00;;;;;;4906192;29;20097;-77
2021/03/06 08:40:06;;;;;;;9.25;4.30;;;1.50;1.00;;;;;;4899355;29;20423;-77
2021/03/06 08:42:35;;;;;;;6.53;3.92;;;1.60;1.00;;;;;;4904418;29;20353;-77
2021/03/06 08:45:07;;;;;;;6.82;4.50;;;1.50;1.00;;;;;;4909382;29;20084;-77
2021/03/06 08:47:35;;;;;;;5.80;4.07;;;1.80;1.00;;;;;;4903321;29;20061;-78
2021/03/06 08:50:07;;;;;;;5.93;4.25;;;1.90;1.00;;;;;;4902565;29;20064;-78
2021/03/06 08:52:36;;;;;;;6.45;4.47;;;1.80;1.00;;;;;;4903128;29;20056;-78
2021/03/06 08:55:04;;;;;;;10.57;4.40;;;2.10;1.00;;;;;;4902005;29;20097;-78
2021/03/06 08:57:33;;;;;;;8.80;4.95;;;2.20;1.00;;;;;;4896583;29;20562;-78
2021/03/06 09:00:19;;;;;;;7.07;4.78;;;2.10;1.00;;;;;;4896924;29;20057;-76
2021/03/06 09:02:47;;;;;;;6.55;4.50;;;2.30;1.00;;;;;;4911377;29;20143;-77
2021/03/06 09:05:16;;;;;;;8.98;4.50;;;2.30;1.00;;;;;;4898241;29;20053;-79
2021/03/06 09:07:46;;;;;;;6.60;4.15;;;2.30;1.00;;;;;;4901185;29;20923;-78
2021/03/06 09:10:16;;;;;;;10.13;4.70;;;2.70;1.00;;;;;;4899792;29;20596;-77
2021/03/06 09:12:45;;;;;;;8.80;4.40;;;2.40;1.00;;;;;;4900089;29;20503;-78
2021/03/06 09:15:22;;;;;;;9.05;4.18;;;2.60;1.00;;;;;;4911056;29;20717;-77
2021/03/06 09:17:50;;;;;;;6.00;4.15;;;2.80;1.00;;;;;;4903337;29;20396;-77
2021/03/06 09:20:17;;;;;;;6.30;4.20;;;3.00;1.00;;;;;;4908539;29;20408;-78
2021/03/06 09:22:48;;;;;;;5.55;4.20;;;3.00;1.00;;;;;;4902298;29;20056;-78
2021/03/06 09:25:28;;;;;;;5.97;4.22;;;2.80;1.00;;;;;;4900400;29;20055;-77
2021/03/06 09:27:56;;;;;;;7.75;3.85;;;3.10;1.00;;;;;;4900092;29;20075;-78
2021/03/06 09:30:34;;;;;;;8.07;4.72;;;3.40;1.00;;;;;;4898123;29;20056;-78
2021/03/06 09:33:03;;;;;;;5.50;4.30;;;3.20;1.00;;;;;;4905205;29;20061;-78
2021/03/06 09:35:30;;;;;;;7.28;4.40;;;3.00;1.00;;;;;;4904761;29;20071;-77
2021/03/06 09:38:10;;;;;;;6.28;4.05;;;3.30;1.00;;;;;;4901507;29;20063;-78
2021/03/06 09:40:41;;;;;;;7.38;4.38;;;3.30;1.00;;;;;;4901618;29;20139;-77
2021/03/06 09:43:28;;;;;;;5.90;3.90;;;3.40;1.00;;;;;;4909112;29;20143;-77
2021/03/06 09:45:57;;;;;;;8.10;3.80;;;3.40;1.00;;;;;;4901829;29;20056;-78
2021/03/06 09:48:25;;;;;;;7.45;4.18;;;3.40;1.00;;;;;;4909438;29;20099;-77
2021/03/06 09:50:54;;;;;;;6.57;4.15;;;3.50;1.00;;;;;;4906348;29;20060;-77
2021/03/06 09:53:24;;;;;;;6.60;3.72;;;3.40;1.00;;;;;;4904122;29;20148;-77
2021/03/06 09:56:11;;;;;;;8.52;3.75;;;3.40;1.00;;;;;;4907375;29;20144;-78
2021/03/06 09:58:39;;;;;;;10.98;6.43;;;3.40;1.00;;;;;;4900791;29;20071;-79
2021/03/06 10:01:24;;;;;;;6.90;4.68;;;3.80;1.00;;;;;;4908608;29;20493;-78
2021/03/06 10:03:51;;;;;;;5.53;4.15;;;4.00;1.00;;;;;;4914555;29;20054;-78
2021/03/06 10:06:21;;;;;;;6.53;4.20;;;4.10;1.00;;;;;;4895424;29;20423;-76
2021/03/06 10:08:52;;;;;;;8.00;4.35;;;3.90;1.00;;;;;;4903042;29;20067;-77
2021/03/06 10:11:20;;;;;;;6.68;4.32;;;3.90;1.00;;;;;;4903094;29;20075;-77
2021/03/06 10:13:51;;;;;;;6.20;3.78;;;3.90;1.00;;;;;;4901427;29;20051;-74
2021/03/06 10:16:18;;;;;;;5.88;4.07;;;3.80;1.00;;;;;;4901341;29;20061;-76
2021/03/06 10:18:46;;;;;;;7.57;4.82;;;3.90;1.00;;;;;;4902463;29;20048;-75
2021/03/06 10:23:52;;;;;;;6.32;4.00;;;4.30;1.00;;;;;;4903288;29;20045;-76
2021/03/06 10:26:24;;;;;;;7.47;3.90;;;4.20;1.00;;;;;;4900995;29;20066;-78
2021/03/06 10:28:54;;;;;;;7.15;4.55;;;3.90;1.00;;;;;;4903043;29;20051;-76
2021/03/06 10:31:33;;;;;;;6.30;3.50;;;4.20;1.00;;;;;;4903573;29;20130;-77
2021/03/06 10:34:18;;;;;;;5.72;3.80;;;4.20;1.00;;;;;;4909718;29;20052;-75
2021/03/06 10:37:04;;;;;;;6.05;3.70;;;4.60;1.00;;;;;;4900054;29;20505;-74
2021/03/06 10:39:32;;;;;;;4.22;3.20;;;4.30;1.00;;;;;;4906944;29;20052;-75
2021/03/06 10:42:00;;;;;;;5.15;3.45;;;4.20;1.00;;;;;;4902023;29;20053;-75
2021/03/06 10:44:39;;;;;;;4.47;3.30;;;4.30;1.00;;;;;;4905207;29;20415;-76
2021/03/06 10:47:06;;;;;;;5.03;3.45;;;4.30;1.00;;;;;;4902798;29;20148;-75
2021/03/06 10:49:38;;;;;;;6.40;3.60;;;4.40;1.00;;;;;;4903422;29;20070;-76
2021/03/06 10:52:10;;;;;;;4.95;3.75;;;4.70;1.00;;;;;;4903935;29;20507;-76
2021/03/06 10:54:49;;;;;;;5.00;3.10;;;4.90;1.00;;;;;;4905188;29;20124;-75
2021/03/06 10:57:18;;;;;;;5.75;3.40;;;4.90;1.00;;;;;;4899160;29;20052;-75
2021/03/06 10:59:46;;;;;;;5.88;3.95;;;5.10;1.00;;;;;;4903373;29;20443;-75
2021/03/06 11:02:27;;;;;;;7.18;3.83;;;5.20;1.00;;;;;;4902198;29;20052;-75
2021/03/06 11:04:55;;;;;;;5.53;3.50;;;5.20;1.00;;;;;;4904579;29;20794;-76
2021/03/06 11:07:28;;;;;;;5.65;3.50;;;5.20;1.00;;;;;;4901899;29;20066;-75
2021/03/06 11:10:00;;;;;;;5.05;3.42;;;5.40;1.00;;;;;;4899840;29;20155;-74
2021/03/06 11:12:30;;;;;;;5.53;3.63;;;5.30;1.00;;;;;;4902244;29;20048;-77
2021/03/06 11:15:10;;;;;;;4.75;3.40;;;5.30;1.00;;;;;;4908518;29;20059;-76
2021/03/06 11:17:38;;;;;;;4.78;3.75;;;5.40;1.00;;;;;;4898007;29;20131;-76
2021/03/06 11:20:08;;;;;;;7.07;3.45;;;5.20;1.00;;;;;;4905759;29;20078;-77
2021/03/06 11:22:36;;;;;;;5.35;3.70;;;5.40;1.00;;;;;;4900128;29;20525;-77
2021/03/06 11:25:05;;;;;;;5.97;3.63;;;5.20;1.00;;;;;;4903125;29;20044;-76
2021/03/06 11:27:59;;;;;;;4.85;3.95;;;5.10;1.00;;;;;;4903216;29;20428;-77
2021/03/06 11:30:28;;;;;;;6.15;3.85;;;5.20;1.00;;;;;;4902682;29;20135;-78
2021/03/06 11:32:55;;;;;;;7.55;3.80;;;5.30;1.00;;;;;;4897588;29;20101;-78
2021/03/06 11:35:23;;;;;;;4.55;3.67;;;5.30;1.00;;;;;;4901981;29;20058;-76
2021/03/06 11:37:52;;;;;;;4.85;3.60;;;5.50;1.00;;;;;;4899456;29;20098;-76
2021/03/06 11:40:21;;;;;;;6.10;3.70;;;5.60;1.00;;;;;;4901816;29;20059;-77
2021/03/06 11:42:48;;;;;;;4.85;3.10;;;5.70;1.00;;;;;;4903253;29;20052;-76
2021/03/06 11:45:17;;;;;;;4.47;3.05;;;5.20;1.00;;;;;;4905041;29;20054;-77
2021/03/06 11:47:46;;;;;;;5.75;3.67;;;5.30;1.00;;;;;;4902238;29;20131;-77
2021/03/06 11:50:16;;;;;;;5.80;3.42;;;5.50;1.00;;;;;;4904791;29;20581;-77
2021/03/06 11:52:44;;;;;;;4.95;3.33;;;5.40;1.00;;;;;;4901119;29;20530;-78
2021/03/06 11:55:13;;;;;;;4.18;2.97;;;5.50;1.00;;;;;;4904202;29;20049;-76
2021/03/06 11:57:42;;;;;;;6.22;3.08;;;5.60;1.00;;;;;;4897950;29;20047;-77
2021/03/06 12:00:12;;;;;;;4.20;2.85;;;5.50;1.00;;;;;;4903849;29;20134;-77
2021/03/06 12:02:39;;;;;;;4.03;2.70;;;5.80;1.00;;;;;;4899320;29;20063;-77
2021/03/06 12:05:09;;;;;;;6.43;3.05;;;6.00;1.00;;;;;;4907054;29;20048;-78
2021/03/06 12:07:36;;;;;;;3.78;2.58;;;6.20;1.00;;;;;;4902050;29;20052;-77
2021/03/06 12:10:06;;;;;;;4.22;2.80;;;6.10;1.00;;;;;;4905128;29;20091;-77
2021/03/06 12:12:33;;;;;;;3.03;2.55;;;5.80;1.00;;;;;;4898799;29;20538;-76
2021/03/06 12:15:02;;;;;;;3.90;2.95;;;5.60;1.00;;;;;;4900974;29;20116;-78
2021/03/06 12:17:28;;;;;;;4.60;2.65;;;5.60;1.00;;;;;;4899371;29;20131;-78
2021/03/06 12:19:56;;;;;;;3.35;2.70;;;5.90;1.00;;;;;;4904477;29;20072;-78
2021/03/06 12:22:23;;;;;;;3.55;2.42;;;5.90;1.00;;;;;;4901323;29;20064;-78
2021/03/06 12:24:50;;;;;;;5.03;2.75;;;6.00;1.00;;;;;;4904464;29;20066;-78
2021/03/06 12:27:17;;;;;;;3.22;2.60;;;5.80;1.00;;;;;;4903817;29;20059;-77
2021/03/06 12:29:44;;;;;;;5.50;2.55;;;6.00;1.00;;;;;;4909921;29;20059;-79
2021/03/06 12:32:15;;;;;;;4.20;2.90;;;6.20;1.00;;;;;;4905033;29;20063;-78
2021/03/06 12:34:42;;;;;;;3.03;2.72;;;6.20;1.00;;;;;;4904180;29;20412;-77
2021/03/06 12:37:09;;;;;;;6.93;3.05;;;6.00;1.00;;;;;;4901629;29;20048;-78
2021/03/06 12:39:36;;;;;;;4.47;2.90;;;6.00;1.00;;;;;;4901025;29;20061;-78
2021/03/06 12:42:04;;;;;;;4.38;3.15;;;6.00;1.00;;;;;;4897433;29;20056;-78
2021/03/06 12:44:31;;;;;;;4.40;2.95;;;6.10;1.00;;;;;;4905359;29;20135;-80
2021/03/06 12:46:58;;;;;;;4.43;2.80;;;6.30;1.00;;;;;;4904071;29;20499;-79
2021/03/06 12:49:26;;;;;;;3.45;2.78;;;6.20;1.00;;;;;;4897882;29;20147;-80
2021/03/06 12:51:53;;;;;;;4.00;2.78;;;6.40;1.00;;;;;;4900088;29;20058;-78
2021/03/06 12:54:22;;;;;;;3.97;2.50;;;6.20;1.00;;;;;;4903289;29;20049;-79
2021/03/06 12:56:49;;;;;;;3.80;2.60;;;6.40;1.00;;;;;;4899109;29;20072;-80
2021/03/06 12:59:16;;;;;;;3.92;3.22;;;6.50;1.00;;;;;;4903805;29;20044;-78
2021/03/06 13:01:43;;;;;;;5.43;3.13;;;6.40;1.00;;;;;;4904022;29;20068;-77
2021/03/06 13:04:10;;;;;;;4.25;3.10;;;6.30;1.00;;;;;;4906492;29;20048;-79
2021/03/06 13:06:38;;;;;;;5.00;2.85;;;6.50;1.00;;;;;;4902801;29;20070;-78
2021/03/06 13:09:05;;;;;;;4.03;3.22;;;6.50;1.00;;;;;;4903096;29;20078;-77
2021/03/06 13:11:33;;;;;;;4.00;3.20;;;6.30;1.00;;;;;;4901151;29;20060;-78
2021/03/06 13:13:59;;;;;;;4.20;3.30;;;6.40;1.00;;;;;;4903154;29;20136;-79
2021/03/06 13:16:26;;;;;;;4.88;3.00;;;6.70;1.00;;;;;;4903621;29;20142;-78
2021/03/06 13:18:53;;;;;;;4.13;2.97;;;6.70;1.00;;;;;;4899739;29;20333;-77